Time;durP1;ratioP1;P1;durP2;ratioP2;P2;SDS_P1;SDS_P2;PMS_P1;PMS_P2;Temp;Humidity;BMP_temperature;BMP_pressure;BME280_temperature;BME280_humidity;BME280_pressure;Samples;Min_cycle;Max_cycle;Signal;HPM_P1;HPM_P2
2021/10/24 00:01:55;;;;;;;13.77;6.68;;;-0.70;99.90;;;;;;5074016;28;20506;-82
2021/10/24 00:04:21;;;;;;;26.20;12.65;;;-0.80;99.90;;;;;;5072345;28;20080;-81
2021/10/24 00:06:48;;;;;;;27.92;12.10;;;-0.70;99.90;;;;;;5072614;28;20086;-82
2021/10/24 00:09:15;;;;;;;20.00;8.40;;;-0.70;99.90;;;;;;5073773;28;20080;-81
2021/10/24 00:11:42;;;;;;;15.93;6.28;;;-0.80;99.90;;;;;;5072744;28;20218;-82
2021/10/24 00:14:08;;;;;;;16.45;6.13;;;-0.90;99.90;;;;;;5072197;28;20139;-81
2021/10/24 00:16:36;;;;;;;15.30;7.18;;;-0.80;99.90;;;;;;5072655;28;20048;-82
2021/10/24 00:19:04;;;;;;;13.57;7.18;;;-0.80;99.90;;;;;;5072184;28;20135;-82
2021/10/24 00:21:31;;;;;;;8.70;5.50;;;-0.70;99.90;;;;;;5072756;28;20135;-82
2021/10/24 00:23:57;;;;;;;9.20;5.22;;;-0.60;99.90;;;;;;5072140;28;20084;-82
2021/10/24 00:26:24;;;;;;;7.88;5.07;;;-0.70;99.90;;;;;;5073938;28;20047;-82
2021/10/24 00:28:55;;;;;;;10.80;5.30;;;-0.60;99.90;;;;;;5077865;28;20052;-82
2021/10/24 00:31:22;;;;;;;8.52;5.00;;;-0.60;99.90;;;;;;5076572;28;20128;-81
2021/10/24 00:33:49;;;;;;;8.68;4.97;;;-0.60;99.90;;;;;;5076658;28;20082;-81
2021/10/24 00:36:21;;;;;;;8.02;4.72;;;-0.60;99.90;;;;;;5078089;28;20048;-82
2021/10/24 00:38:48;;;;;;;7.65;4.38;;;-0.70;99.90;;;;;;5077367;28;20059;-82
2021/10/24 00:41:16;;;;;;;6.25;4.30;;;-0.80;99.90;;;;;;5076017;28;20059;-82
2021/10/24 00:43:43;;;;;;;6.88;4.18;;;-0.70;99.90;;;;;;5077291;28;20049;-81
2021/10/24 00:46:10;;;;;;;9.02;5.32;;;-0.80;99.90;;;;;;5074365;28;20405;-82
2021/10/24 00:48:57;;;;;;;10.07;4.55;;;-0.90;99.90;;;;;;5075913;28;20410;-82
2021/10/24 00:51:24;;;;;;;9.95;5.20;;;-0.90;99.90;;;;;;5077794;28;20551;-82
2021/10/24 00:53:50;;;;;;;8.10;4.50;;;-0.90;99.90;;;;;;5075364;28;20147;-82
2021/10/24 00:56:17;;;;;;;10.30;4.57;;;-0.90;99.90;;;;;;5076267;28;20053;-82
2021/10/24 00:58:44;;;;;;;9.70;4.68;;;-0.90;99.90;;;;;;5076931;28;20466;-82
2021/10/24 01:01:11;;;;;;;8.57;5.60;;;-0.90;99.90;;;;;;5076907;28;20044;-82
2021/10/24 01:03:39;;;;;;;11.10;5.20;;;-1.00;99.90;;;;;;5077810;28;20044;-82
2021/10/24 01:06:05;;;;;;;10.20;5.32;;;-1.10;99.90;;;;;;5076590;28;20474;-83
2021/10/24 01:08:36;;;;;;;8.80;5.22;;;-1.00;99.90;;;;;;5076152;28;20528;-82
2021/10/24 01:11:03;;;;;;;16.02;5.43;;;-1.00;99.90;;;;;;5078680;28;20466;-82
2021/10/24 01:13:33;;;;;;;13.32;4.97;;;-1.00;99.90;;;;;;5082864;28;20079;-83
2021/10/24 01:16:11;;;;;;;9.05;4.38;;;-1.00;99.90;;;;;;5082805;28;20070;-83
2021/10/24 01:18:39;;;;;;;10.18;4.80;;;-1.00;99.90;;;;;;5081495;28;20084;-83
2021/10/24 01:21:06;;;;;;;7.00;4.55;;;-1.10;99.90;;;;;;5084636;28;20053;-83
2021/10/24 01:23:33;;;;;;;13.15;5.72;;;-1.10;99.90;;;;;;5082920;28;20071;-83
2021/10/24 01:26:01;;;;;;;9.18;5.03;;;-1.20;99.90;;;;;;5083184;28;20429;-83
2021/10/24 01:28:28;;;;;;;12.48;5.95;;;-1.20;99.90;;;;;;5084300;28;20072;-83
2021/10/24 01:30:55;;;;;;;5.55;4.45;;;-1.10;99.90;;;;;;5083432;28;20079;-83
2021/10/24 01:33:22;;;;;;;10.45;4.93;;;-1.10;99.90;;;;;;5082806;28;20079;-83
2021/10/24 01:35:56;;;;;;;13.85;5.63;;;-1.20;99.90;;;;;;5082635;28;20143;-83
2021/10/24 01:38:24;;;;;;;10.02;5.45;;;-1.20;99.90;;;;;;5081469;28;20079;-83
2021/10/24 01:40:53;;;;;;;12.00;5.22;;;-1.10;99.90;;;;;;5083218;28;20048;-83
2021/10/24 01:43:21;;;;;;;14.35;5.90;;;-1.20;99.90;;;;;;5083043;28;20433;-83
2021/10/24 01:45:48;;;;;;;26.85;7.53;;;-1.30;99.90;;;;;;5083697;28;20087;-83
2021/10/24 01:48:16;;;;;;;19.23;7.35;;;-1.10;99.90;;;;;;5084386;28;20115;-83
2021/10/24 01:50:44;;;;;;;9.88;6.78;;;-0.90;99.90;;;;;;5083078;28;20079;-83
2021/10/24 01:53:14;;;;;;;10.40;5.85;;;-0.90;99.90;;;;;;5082567;28;20131;-83
2021/10/24 01:55:41;;;;;;;15.82;5.88;;;-0.90;99.90;;;;;;5082561;28;20049;-83
2021/10/24 01:58:08;;;;;;;18.73;6.85;;;-1.10;99.90;;;;;;5082508;28;20135;-83
2021/10/24 02:00:35;;;;;;;12.73;7.13;;;-1.10;99.90;;;;;;5083820;28;20072;-83
2021/10/24 02:03:02;;;;;;;12.27;7.15;;;-1.10;99.90;;;;;;5081745;28;20071;-83
2021/10/24 02:05:29;;;;;;;8.07;5.93;;;-1.20;99.90;;;;;;5082475;28;20398;-83
2021/10/24 02:07:56;;;;;;;18.67;6.32;;;-1.20;99.90;;;;;;5082044;28;20044;-83
2021/10/24 02:10:22;;;;;;;10.40;5.80;;;-1.20;99.90;;;;;;5082534;28;20053;-83
2021/10/24 02:12:49;;;;;;;11.25;4.57;;;-1.20;99.90;;;;;;5082369;28;20079;-83
2021/10/24 02:15:16;;;;;;;10.43;5.03;;;-1.20;99.90;;;;;;5081889;28;20044;-83
2021/10/24 02:17:43;;;;;;;11.10;5.03;;;-1.20;99.90;;;;;;5082151;28;20123;-83
2021/10/24 02:20:10;;;;;;;10.93;4.85;;;-1.30;99.90;;;;;;5082618;28;20108;-83
2021/10/24 02:22:38;;;;;;;13.65;5.75;;;-1.30;99.90;;;;;;5082042;28;20523;-83
2021/10/24 02:25:05;;;;;;;11.27;5.70;;;-1.40;99.90;;;;;;5081522;28;20072;-83
2021/10/24 02:27:32;;;;;;;13.07;5.90;;;-1.40;99.90;;;;;;5082728;28;20136;-83
2021/10/24 02:30:00;;;;;;;11.20;4.72;;;-1.40;99.90;;;;;;5081324;28;20056;-83
2021/10/24 02:32:27;;;;;;;6.63;4.57;;;-1.40;99.90;;;;;;5081473;28;20048;-83
2021/10/24 02:34:53;;;;;;;10.85;5.57;;;-1.50;99.90;;;;;;5081286;28;20084;-83
2021/10/24 02:37:20;;;;;;;10.75;4.50;;;-1.50;99.90;;;;;;5080633;28;20117;-83
2021/10/24 02:39:47;;;;;;;20.95;6.28;;;-1.50;99.90;;;;;;5081654;28;20537;-83
2021/10/24 02:42:14;;;;;;;10.00;4.80;;;-1.60;99.90;;;;;;5081654;28;20068;-83
2021/10/24 02:44:40;;;;;;;9.90;5.28;;;-1.60;99.90;;;;;;5080928;28;20071;-83
2021/10/24 02:47:07;;;;;;;7.65;5.40;;;-1.60;99.90;;;;;;5082266;28;20108;-83
2021/10/24 02:49:34;;;;;;;11.52;6.00;;;-1.50;99.90;;;;;;5081044;28;20074;-83
2021/10/24 02:52:01;;;;;;;14.05;5.72;;;-1.60;99.90;;;;;;5082510;28;20087;-83
2021/10/24 02:54:28;;;;;;;13.55;5.40;;;-1.60;99.90;;;;;;5081496;28;20120;-83
2021/10/24 02:57:11;;;;;;;11.90;4.68;;;-1.60;99.90;;;;;;5081487;28;20463;-83
2021/10/24 02:59:38;;;;;;;14.05;5.40;;;-1.60;99.90;;;;;;5082559;28;20131;-83
2021/10/24 03:02:05;;;;;;;6.93;4.43;;;-1.60;99.90;;;;;;5081782;28;20080;-83
2021/10/24 03:04:44;;;;;;;7.20;4.63;;;-1.70;99.90;;;;;;5082542;28;20071;-83
2021/10/24 03:07:13;;;;;;;8.77;4.18;;;-1.70;99.90;;;;;;5082863;28;20045;-83
2021/10/24 03:09:53;;;;;;;7.15;4.70;;;-1.70;99.90;;;;;;5082399;28;20063;-83
2021/10/24 03:12:20;;;;;;;11.65;4.13;;;-1.70;99.90;;;;;;5081254;28;20072;-83
2021/10/24 03:14:47;;;;;;;8.90;4.15;;;-1.70;99.90;;;;;;5081462;28;20047;-83
2021/10/24 03:17:46;;;;;;;7.50;3.90;;;-1.60;99.90;;;;;;5081788;28;20072;-83
2021/10/24 03:20:13;;;;;;;7.65;3.60;;;-1.80;99.90;;;;;;5082584;28;20136;-83
2021/10/24 03:22:39;;;;;;;10.80;3.88;;;-1.70;99.90;;;;;;5083667;28;20072;-83
2021/10/24 03:25:49;;;;;;;6.75;4.53;;;-1.70;99.90;;;;;;5082657;28;20135;-83
2021/10/24 03:28:15;;;;;;;7.97;3.83;;;-1.70;99.90;;;;;;5083037;28;20072;-83
2021/10/24 03:30:42;;;;;;;10.30;4.00;;;-1.70;99.90;;;;;;5082134;28;20494;-83
2021/10/24 03:33:23;;;;;;;8.60;3.38;;;-1.70;99.90;;;;;;5080567;28;20076;-83
2021/10/24 03:35:50;;;;;;;7.63;3.45;;;-1.70;99.90;;;;;;5081990;28;20045;-83
2021/10/24 03:38:18;;;;;;;6.30;3.45;;;-1.70;99.90;;;;;;5081686;28;20055;-83
2021/10/24 03:40:45;;;;;;;8.43;3.72;;;-1.80;99.90;;;;;;5066936;28;20056;-83
2021/10/24 03:43:12;;;;;;;9.02;4.35;;;-1.80;99.90;;;;;;5081169;28;20049;-83
2021/10/24 03:45:40;;;;;;;10.60;3.90;;;-1.90;99.90;;;;;;5081063;28;20050;-83
2021/10/24 03:48:10;;;;;;;8.93;4.18;;;-1.90;99.90;;;;;;5080199;28;20067;-83
2021/10/24 03:50:37;;;;;;;8.63;3.65;;;-2.00;99.90;;;;;;5082039;28;20123;-83
2021/10/24 03:53:03;;;;;;;6.82;3.88;;;-1.90;99.90;;;;;;5080940;28;20049;-83
2021/10/24 03:55:36;;;;;;;7.68;3.85;;;-1.80;99.90;;;;;;5080631;28;20045;-83
2021/10/24 03:58:03;;;;;;;6.80;3.50;;;-1.90;99.90;;;;;;5082315;28;20448;-83
2021/10/24 04:00:30;;;;;;;10.88;4.55;;;-1.90;99.90;;;;;;5080805;28;20045;-83
2021/10/24 04:03:00;;;;;;;4.72;3.55;;;-1.90;99.90;;;;;;5081101;28;20087;-83
2021/10/24 04:05:28;;;;;;;10.25;4.32;;;-1.90;99.90;;;;;;5081022;28;20045;-83
2021/10/24 04:07:55;;;;;;;8.13;4.05;;;-2.00;99.90;;;;;;5081034;28;20072;-83
2021/10/24 04:10:31;;;;;;;7.30;3.63;;;-2.00;99.90;;;;;;5080637;28;20413;-83
2021/10/24 04:12:58;;;;;;;8.27;3.83;;;-2.10;99.90;;;;;;5081007;28;20488;-83
2021/10/24 04:15:25;;;;;;;10.60;4.25;;;-2.20;99.90;;;;;;5080072;28;20524;-83
2021/10/24 04:17:55;;;;;;;10.88;4.18;;;-2.20;99.90;;;;;;5080556;28;20075;-83
2021/10/24 04:20:22;;;;;;;9.27;4.78;;;-2.20;99.90;;;;;;5080576;28;20133;-83
2021/10/24 04:22:50;;;;;;;8.70;4.40;;;-2.20;99.90;;;;;;5080469;28;20079;-83
2021/10/24 04:25:19;;;;;;;12.70;4.53;;;-2.20;99.90;;;;;;5079986;28;20405;-83
2021/10/24 04:27:46;;;;;;;6.57;4.30;;;-2.30;99.90;;;;;;5081359;28;20056;-83
2021/10/24 04:30:13;;;;;;;8.07;3.75;;;-2.20;99.90;;;;;;5080659;28;20401;-83
2021/10/24 04:32:43;;;;;;;7.30;3.75;;;-2.20;99.90;;;;;;5080438;28;20068;-83
2021/10/24 04:35:12;;;;;;;9.60;4.15;;;-2.20;99.90;;;;;;5079127;28;20071;-83
2021/10/24 04:37:39;;;;;;;7.32;4.18;;;-2.20;99.90;;;;;;5081573;28;20098;-83
2021/10/24 04:40:07;;;;;;;8.57;4.55;;;-2.20;99.90;;;;;;5079975;28;20493;-83
2021/10/24 04:42:35;;;;;;;10.30;4.55;;;-2.20;99.90;;;;;;5080223;28;20048;-83
2021/10/24 04:45:05;;;;;;;10.18;4.13;;;-2.20;99.90;;;;;;5079959;28;20056;-83
2021/10/24 04:47:32;;;;;;;8.80;4.55;;;-2.30;99.90;;;;;;5080738;28;20060;-83
2021/10/24 04:49:59;;;;;;;8.10;4.70;;;-2.40;99.90;;;;;;5080038;28;20076;-83
2021/10/24 04:52:25;;;;;;;9.23;5.10;;;-2.30;99.90;;;;;;5080156;28;20524;-83
2021/10/24 04:54:52;;;;;;;13.48;4.22;;;-2.40;99.90;;;;;;5079821;28;20075;-83
2021/10/24 04:57:19;;;;;;;14.77;4.97;;;-2.30;99.90;;;;;;5079965;28;20048;-83
2021/10/24 04:59:46;;;;;;;9.93;4.70;;;-2.40;99.90;;;;;;5079714;28;20040;-83
2021/10/24 05:02:12;;;;;;;9.93;4.70;;;-2.40;99.90;;;;;;5079915;28;20412;-83
2021/10/24 05:04:39;;;;;;;5.35;3.78;;;-2.40;99.90;;;;;;5081226;28;20132;-83
2021/10/24 05:07:06;;;;;;;11.13;4.78;;;-2.40;99.90;;;;;;5080276;28;20080;-83
2021/10/24 05:09:33;;;;;;;8.02;4.18;;;-2.50;99.90;;;;;;5081169;28;20049;-83
2021/10/24 05:12:00;;;;;;;8.65;4.47;;;-2.40;99.90;;;;;;5081649;28;20398;-83
2021/10/24 05:14:27;;;;;;;7.40;4.25;;;-2.20;99.90;;;;;;5084105;28;20074;-83
2021/10/24 05:16:53;;;;;;;6.15;3.88;;;-2.30;99.90;;;;;;5084524;28;20052;-83
2021/10/24 05:19:20;;;;;;;7.13;4.18;;;-2.30;99.90;;;;;;5083581;28;20493;-83
2021/10/24 05:21:47;;;;;;;10.70;4.30;;;-2.40;99.90;;;;;;5083948;28;20102;-83
2021/10/24 05:24:14;;;;;;;8.98;4.03;;;-2.40;99.90;;;;;;5083565;28;20049;-83
2021/10/24 05:26:40;;;;;;;10.60;3.90;;;-2.50;99.90;;;;;;5083965;28;20059;-83
2021/10/24 05:29:07;;;;;;;8.65;3.90;;;-2.50;99.90;;;;;;5084405;28;20458;-83
2021/10/24 05:31:34;;;;;;;8.88;3.78;;;-2.50;99.90;;;;;;5085701;28;20164;-83
2021/10/24 05:34:01;;;;;;;6.75;3.75;;;-2.50;99.90;;;;;;5084438;28;20068;-83
2021/10/24 05:36:28;;;;;;;11.70;4.05;;;-2.50;99.90;;;;;;5082750;28;20111;-83
2021/10/24 05:38:55;;;;;;;8.13;3.47;;;-2.60;99.90;;;;;;5074868;28;20073;-84
2021/10/24 05:41:23;;;;;;;5.75;3.22;;;-2.60;99.90;;;;;;5080290;28;20460;-83
2021/10/24 05:43:50;;;;;;;5.70;3.13;;;-2.60;99.90;;;;;;5084002;28;20044;-83
2021/10/24 05:46:18;;;;;;;4.03;3.20;;;-2.60;99.90;;;;;;5086075;28;20064;-84
2021/10/24 05:48:45;;;;;;;7.38;3.42;;;-2.50;99.90;;;;;;5083049;28;20055;-83
2021/10/24 05:51:11;;;;;;;6.78;3.15;;;-2.50;99.90;;;;;;5083892;28;20111;-84
2021/10/24 05:53:38;;;;;;;6.80;4.05;;;-2.50;99.90;;;;;;5085562;28;20052;-84
2021/10/24 05:56:05;;;;;;;9.63;3.90;;;-2.50;99.90;;;;;;5083283;28;20045;-83
2021/10/24 05:58:32;;;;;;;9.88;4.82;;;-2.40;99.90;;;;;;5081535;28;20112;-83
2021/10/24 06:00:59;;;;;;;9.63;4.53;;;-2.40;99.90;;;;;;5081569;28;20560;-83
2021/10/24 06:03:26;;;;;;;7.75;3.75;;;-2.50;99.90;;;;;;5085460;28;20049;-83
2021/10/24 06:05:53;;;;;;;8.00;4.50;;;-2.50;99.90;;;;;;5083464;28;20057;-84
2021/10/24 06:08:23;;;;;;;7.80;3.72;;;-2.60;99.90;;;;;;5083955;28;20072;-84
2021/10/24 06:11:03;;;;;;;9.60;4.03;;;-2.60;99.90;;;;;;5082705;28;20044;-84
2021/10/24 06:13:30;;;;;;;8.95;4.43;;;-2.60;99.90;;;;;;5082545;28;20064;-84
2021/10/24 06:15:58;;;;;;;9.55;4.22;;;-2.50;99.90;;;;;;5081306;28;20137;-83
2021/10/24 06:18:24;;;;;;;8.63;4.00;;;-2.50;99.90;;;;;;5062926;28;20116;-83
2021/10/24 06:20:52;;;;;;;9.35;4.05;;;-2.40;99.90;;;;;;5064700;28;20128;-84
2021/10/24 06:23:19;;;;;;;8.85;4.95;;;-2.40;99.90;;;;;;5063073;28;20087;-84
2021/10/24 06:25:45;;;;;;;8.82;4.05;;;-2.40;99.90;;;;;;5063141;28;20073;-84
2021/10/24 06:28:17;;;;;;;10.00;4.15;;;-2.30;99.90;;;;;;5063281;28;20406;-84
2021/10/24 06:30:44;;;;;;;5.72;4.00;;;-2.30;99.90;;;;;;5063235;28;20124;-84
2021/10/24 06:33:12;;;;;;;6.50;4.05;;;-2.30;99.90;;;;;;5064553;28;20056;-84
2021/10/24 06:35:39;;;;;;;7.75;4.32;;;-2.30;99.90;;;;;;5063603;28;20068;-84
2021/10/24 06:38:05;;;;;;;8.40;3.83;;;-2.30;99.90;;;;;;5062740;28;20427;-84
2021/10/24 06:40:38;;;;;;;8.23;3.75;;;-2.20;99.90;;;;;;5062222;28;20469;-84
2021/10/24 06:43:04;;;;;;;11.65;4.00;;;-2.20;99.90;;;;;;5026094;28;20136;-84
2021/10/24 06:45:32;;;;;;;7.45;3.67;;;-2.10;99.90;;;;;;5026186;28;20045;-84
2021/10/24 06:48:02;;;;;;;12.82;4.40;;;-2.00;99.90;;;;;;5026062;28;20045;-84
2021/10/24 06:50:28;;;;;;;9.50;5.20;;;-1.90;99.90;;;;;;5043414;28;20471;-84
2021/10/24 06:52:55;;;;;;;9.52;5.32;;;-1.90;99.90;;;;;;5043911;28;20160;-84
2021/10/24 06:55:22;;;;;;;13.45;6.28;;;-1.90;99.90;;;;;;5043149;28;20442;-83
2021/10/24 06:57:52;;;;;;;8.73;5.40;;;-1.90;99.90;;;;;;5026103;28;20132;-84
2021/10/24 07:00:26;;;;;;;11.50;5.82;;;-1.80;99.90;;;;;;5033773;28;20069;-84
2021/10/24 07:02:56;;;;;;;13.98;8.85;;;-1.80;99.90;;;;;;5035397;28;20053;-84
2021/10/24 07:05:24;;;;;;;16.02;6.50;;;-1.70;99.90;;;;;;5036809;28;20044;-84
2021/10/24 07:07:52;;;;;;;8.38;5.60;;;-1.80;99.90;;;;;;5034785;28;20092;-84
2021/10/24 07:10:19;;;;;;;7.82;5.32;;;-1.60;99.90;;;;;;5052020;28;20091;-84
2021/10/24 07:12:51;;;;;;;10.45;5.28;;;-1.60;99.90;;;;;;5039919;28;20045;-84
2021/10/24 07:15:20;;;;;;;11.93;5.07;;;-1.60;99.90;;;;;;5045319;28;20091;-84
2021/10/24 07:17:47;;;;;;;9.73;5.10;;;-1.50;99.90;;;;;;5041615;28;20461;-84
2021/10/24 07:20:17;;;;;;;9.82;5.25;;;-1.60;99.90;;;;;;5031276;28;20524;-84
2021/10/24 07:22:44;;;;;;;9.73;5.10;;;-1.50;99.90;;;;;;5025202;28;20495;-84
2021/10/24 07:25:12;;;;;;;10.48;5.93;;;-1.50;99.90;;;;;;5024784;28;20045;-84
2021/10/24 07:27:41;;;;;;;15.10;6.40;;;-1.40;99.90;;;;;;5027758;28;20530;-84
2021/10/24 07:30:09;;;;;;;12.38;6.07;;;-1.40;99.90;;;;;;5033763;28;20045;-84
2021/10/24 07:32:36;;;;;;;10.40;6.47;;;-1.40;99.90;;;;;;5032926;28;20491;-84
2021/10/24 07:35:05;;;;;;;12.85;5.93;;;-1.40;99.90;;;;;;5035204;28;20073;-84
2021/10/24 07:37:38;;;;;;;11.38;5.50;;;-1.40;99.90;;;;;;5038165;28;20049;-84
2021/10/24 07:40:07;;;;;;;10.65;5.00;;;-1.30;99.90;;;;;;5035285;28;20053;-84
2021/10/24 07:42:34;;;;;;;10.98;4.18;;;-1.40;99.90;;;;;;5055158;28;20105;-84
2021/10/24 07:45:03;;;;;;;13.77;4.25;;;-1.30;99.90;;;;;;5062400;28;20048;-84
2021/10/24 07:47:30;;;;;;;10.85;5.38;;;-1.20;99.90;;;;;;5072873;28;20127;-84
2021/10/24 07:50:04;;;;;;;18.30;5.55;;;-1.20;99.90;;;;;;5081151;28;20079;-84
2021/10/24 07:52:33;;;;;;;13.05;5.57;;;-1.10;99.90;;;;;;5081200;28;20095;-84
2021/10/24 07:55:03;;;;;;;12.82;6.10;;;-1.00;99.90;;;;;;5081970;28;20048;-84
2021/10/24 07:57:30;;;;;;;20.45;6.50;;;-0.50;99.90;;;;;;5079692;28;20808;-84
2021/10/24 07:59:58;;;;;;;33.13;10.48;;;0.00;99.90;;;;;;5079271;28;20075;-83
2021/10/24 08:02:24;;;;;;;1574.13;355.98;;;0.90;99.90;;;;;;5079620;28;20108;-82
2021/10/24 08:04:52;;;;;;;1726.82;284.45;;;1.40;99.90;;;;;;5078044;28;20044;-82
2021/10/24 08:07:18;;;;;;;1999.90;567.45;;;1.90;99.90;;;;;;5077811;28;20067;-82
2021/10/24 08:09:45;;;;;;;1935.70;346.25;;;2.50;99.90;;;;;;5076933;28;20083;-81
2021/10/24 08:12:13;;;;;;;1494.47;368.25;;;3.00;99.90;;;;;;5077749;28;20087;-82
2021/10/24 08:14:40;;;;;;;106.55;16.23;;;3.00;99.90;;;;;;5077278;28;20066;-82
2021/10/24 08:17:07;;;;;;;51.42;8.38;;;3.20;99.90;;;;;;5077046;28;20108;-82
2021/10/24 08:19:34;;;;;;;24.00;4.88;;;4.40;99.90;;;;;;5066605;28;20045;-82
2021/10/24 08:22:02;;;;;;;65.57;22.52;;;5.00;99.90;;;;;;5057698;28;20053;-82
2021/10/24 08:24:29;;;;;;;278.92;169.05;;;6.40;99.90;;;;;;5056971;28;20133;-82
2021/10/24 08:26:56;;;;;;;26.83;7.65;;;6.60;99.90;;;;;;5057455;28;20075;-82
2021/10/24 08:29:23;;;;;;;21.92;3.20;;;7.10;99.90;;;;;;5059173;28;20529;-82
2021/10/24 08:31:51;;;;;;;341.35;231.55;;;7.40;99.90;;;;;;5057142;28;20433;-82
2021/10/24 08:34:19;;;;;;;28.70;13.95;;;7.00;99.90;;;;;;5057010;28;20095;-82
2021/10/24 08:36:47;;;;;;;23.20;7.50;;;6.60;99.90;;;;;;5058818;28;20077;-81
2021/10/24 08:39:14;;;;;;;37.90;14.30;;;6.10;99.90;;;;;;5056893;28;20426;-82
2021/10/24 08:41:41;;;;;;;12.60;3.75;;;6.30;99.90;;;;;;5057209;28;20521;-82
2021/10/24 08:44:08;;;;;;;17.63;7.65;;;6.40;99.90;;;;;;5057141;28;20077;-82
2021/10/24 08:46:34;;;;;;;19.05;4.50;;;7.40;99.90;;;;;;5057181;28;20434;-82
2021/10/24 08:49:02;;;;;;;42.78;20.38;;;8.40;99.90;;;;;;5060924;28;20045;-82
2021/10/24 08:51:29;;;;;;;16.98;3.08;;;10.00;99.90;;;;;;5060651;28;20064;-82
2021/10/24 08:53:57;;;;;;;12.50;2.55;;;10.20;99.90;;;;;;5061149;28;20136;-81
2021/10/24 08:56:26;;;;;;;21.70;3.88;;;10.30;99.90;;;;;;5060814;28;20052;-82
2021/10/24 08:58:53;;;;;;;26.80;5.90;;;10.90;99.90;;;;;;5060297;28;20049;-82
2021/10/24 09:01:20;;;;;;;30.17;5.28;;;10.60;99.90;;;;;;5061042;28;20104;-81
2021/10/24 09:04:12;;;;;;;37.63;3.90;;;12.90;99.90;;;;;;5062106;28;20095;-82
2021/10/24 09:06:59;;;;;;;15.75;3.25;;;13.00;99.90;;;;;;5061934;28;20049;-81
2021/10/24 09:09:30;;;;;;;20.65;3.38;;;12.90;99.90;;;;;;5060411;28;20041;-82
2021/10/24 09:12:03;;;;;;;13.75;3.08;;;13.90;98.40;;;;;;5060883;28;20570;-81
2021/10/24 09:14:36;;;;;;;26.70;3.78;;;14.00;95.80;;;;;;5060597;28;20045;-82
2021/10/24 09:17:04;;;;;;;25.83;4.20;;;14.30;93.60;;;;;;5060222;28;20124;-81
2021/10/24 09:19:37;;;;;;;18.10;2.85;;;14.40;94.30;;;;;;5060270;28;20128;-82
2021/10/24 09:22:22;;;;;;;16.23;3.30;;;14.80;94.00;;;;;;5059958;28;20139;-79
2021/10/24 09:25:01;;;;;;;28.40;3.80;;;13.40;97.70;;;;;;5060225;28;20569;-80
2021/10/24 09:27:29;;;;;;;16.92;3.13;;;14.80;93.30;;;;;;5064503;28;20543;-79
2021/10/24 09:30:04;;;;;;;11.68;2.58;;;16.50;91.50;;;;;;5060232;28;20051;-80
2021/10/24 09:32:48;;;;;;;12.25;2.53;;;17.30;86.20;;;;;;5060947;28;20099;-79
2021/10/24 09:35:15;;;;;;;15.05;2.65;;;17.50;80.90;;;;;;5061546;28;20084;-79
2021/10/24 09:37:49;;;;;;;21.70;2.95;;;18.10;78.90;;;;;;5059541;28;20055;-79
2021/10/24 09:40:17;;;;;;;18.23;2.88;;;18.60;77.30;;;;;;5060937;28;20131;-79
2021/10/24 09:42:44;;;;;;;13.68;2.97;;;18.30;76.70;;;;;;5059021;28;20132;-80
2021/10/24 09:45:14;;;;;;;11.45;3.10;;;18.90;75.30;;;;;;5059842;28;20041;-80
2021/10/24 09:47:46;;;;;;;10.05;2.13;;;20.70;71.70;;;;;;5059324;28;20048;-80
2021/10/24 09:50:32;;;;;;;13.85;2.53;;;19.80;73.80;;;;;;5061254;28;20049;-79
2021/10/24 09:53:26;;;;;;;12.32;2.65;;;20.70;70.80;;;;;;5059276;28;20445;-79
2021/10/24 09:55:53;;;;;;;9.15;1.77;;;22.20;64.40;;;;;;5057707;28;20083;-78
2021/10/24 09:58:20;;;;;;;16.58;2.17;;;21.90;65.00;;;;;;5058098;28;20593;-78
2021/10/24 10:00:47;;;;;;;8.82;2.67;;;22.50;62.20;;;;;;5059465;28;20079;-78
2021/10/24 10:03:15;;;;;;;9.85;2.55;;;22.80;62.10;;;;;;5059588;28;20437;-79
2021/10/24 10:05:42;;;;;;;10.57;2.17;;;23.20;58.60;;;;;;5056737;28;20049;-78
2021/10/24 10:08:28;;;;;;;10.30;2.13;;;21.50;64.60;;;;;;5057158;28;20497;-79
2021/10/24 10:11:10;;;;;;;4.47;2.10;;;22.40;62.40;;;;;;5057131;28;20076;-77
2021/10/24 10:13:40;;;;;;;8.93;2.08;;;23.80;60.00;;;;;;5057516;28;20144;-78
2021/10/24 10:16:39;;;;;;;4.72;1.95;;;22.50;61.10;;;;;;5055534;28;20422;-78
2021/10/24 10:19:13;;;;;;;4.10;1.52;;;22.60;60.90;;;;;;5055432;28;20072;-78
2021/10/24 10:21:43;;;;;;;1.75;1.25;;;21.80;63.20;;;;;;5055095;28;20175;-78
2021/10/24 10:24:33;;;;;;;7.22;1.83;;;22.30;62.30;;;;;;5055706;28;20076;-78
2021/10/24 10:27:23;;;;;;;3.03;1.50;;;21.00;65.50;;;;;;5055911;28;20112;-78
2021/10/24 10:29:53;;;;;;;1.85;1.10;;;22.20;62.40;;;;;;5055149;28;20578;-79
2021/10/24 10:32:24;;;;;;;3.08;1.60;;;23.50;61.10;;;;;;5055279;28;20557;-78
2021/10/24 10:34:57;;;;;;;3.75;1.52;;;22.40;58.50;;;;;;5054916;28;20077;-79
2021/10/24 10:37:51;;;;;;;5.77;1.60;;;22.60;58.60;;;;;;5054820;28;20180;-78
2021/10/24 10:40:33;;;;;;;4.50;1.35;;;22.50;59.00;;;;;;5054974;28;20091;-78
2021/10/24 10:43:01;;;;;;;24.75;3.10;;;23.70;59.20;;;;;;5075065;28;20135;-79
2021/10/24 10:45:38;;;;;;;23.35;3.35;;;25.60;51.40;;;;;;5058765;28;20131;-79
2021/10/24 10:48:28;;;;;;;6.32;1.92;;;24.60;52.60;;;;;;5057904;28;20051;-79
2021/10/24 10:50:57;;;;;;;17.00;3.10;;;25.50;53.10;;;;;;5057940;28;20143;-79
2021/10/24 10:53:30;;;;;;;47.58;5.13;;;26.10;52.80;;;;;;5075939;28;20080;-79
2021/10/24 10:56:00;;;;;;;2.08;1.10;;;26.60;54.00;;;;;;5075818;28;20557;-79
2021/10/24 10:58:43;;;;;;;2.17;1.40;;;26.70;46.00;;;;;;5057910;28;20083;-79
2021/10/24 11:01:24;;;;;;;1.50;1.17;;;27.40;46.80;;;;;;5058196;28;20048;-79
2021/10/24 11:03:57;;;;;;;1.95;1.30;;;26.80;47.20;;;;;;5057554;28;20604;-79
2021/10/24 11:06:23;;;;;;;2.47;1.50;;;25.90;44.20;;;;;;5057608;28;20114;-79
2021/10/24 11:08:58;;;;;;;3.42;1.25;;;25.80;45.40;;;;;;5057399;28;20545;-80
2021/10/24 11:11:37;;;;;;;2.83;1.50;;;26.80;46.40;;;;;;5057423;28;20488;-79
2021/10/24 11:14:13;;;;;;;3.70;1.25;;;26.80;44.50;;;;;;5057465;28;20131;-78
2021/10/24 11:16:55;;;;;;;3.78;1.40;;;26.50;45.60;;;;;;5057599;28;20045;-78
2021/10/24 11:19:25;;;;;;;2.05;1.00;;;26.80;45.70;;;;;;5075215;28;20405;-79
2021/10/24 11:21:55;;;;;;;7.85;1.65;;;27.40;44.00;;;;;;5057430;28;20049;-79
2021/10/24 11:24:26;;;;;;;4.93;1.40;;;25.90;46.30;;;;;;5075317;28;20045;-79
2021/10/24 11:26:57;;;;;;;3.88;1.38;;;26.00;46.10;;;;;;5057325;28;20055;-78
2021/10/24 11:29:23;;;;;;;22.45;2.65;;;25.40;49.30;;;;;;5057450;28;20072;-79
2021/10/24 11:32:23;;;;;;;5.25;1.83;;;25.20;47.40;;;;;;5057799;28;20131;-80
2021/10/24 11:34:54;;;;;;;3.90;1.40;;;26.10;47.30;;;;;;5057263;28;20140;-79
2021/10/24 11:37:35;;;;;;;2.38;1.20;;;26.60;45.40;;;;;;5057335;28;20174;-79
2021/10/24 11:40:10;;;;;;;1.60;0.98;;;27.10;44.10;;;;;;5057558;28;20049;-79
2021/10/24 11:42:37;;;;;;;2.35;1.10;;;27.10;44.80;;;;;;5056958;28;20437;-79
2021/10/24 11:45:27;;;;;;;1.90;1.08;;;27.00;44.20;;;;;;5057855;28;20136;-79
2021/10/24 11:48:17;;;;;;;2.08;1.08;;;26.30;44.10;;;;;;5075241;28;20080;-79
2021/10/24 11:51:02;;;;;;;2.00;1.20;;;26.20;45.70;;;;;;5057824;28;20139;-79
2021/10/24 11:53:30;;;;;;;5.30;1.13;;;25.10;45.90;;;;;;5057176;28;20058;-79
2021/10/24 11:56:16;;;;;;;1.42;1.23;;;23.90;48.80;;;;;;5058152;28;20055;-81
2021/10/24 12:01:16;;;;;;;1.63;1.00;;;22.10;50.50;;;;;;5075790;28;20152;-80
2021/10/24 12:03:52;;;;;;;5.43;1.02;;;21.60;52.00;;;;;;5057758;28;20424;-80
2021/10/24 12:06:39;;;;;;;2.85;1.20;;;21.40;51.90;;;;;;5075719;28;20102;-79
2021/10/24 12:09:05;;;;;;;5.85;1.15;;;20.90;53.80;;;;;;5075206;28;20131;-79
2021/10/24 12:11:46;;;;;;;4.00;1.20;;;20.80;53.40;;;;;;5057993;28;20052;-79
2021/10/24 12:14:13;;;;;;;28.95;3.33;;;20.20;55.20;;;;;;5058507;28;20466;-79
2021/10/24 12:16:46;;;;;;;6.35;1.95;;;19.10;57.50;;;;;;5058052;28;20619;-80
2021/10/24 12:19:32;;;;;;;5.75;1.30;;;18.80;59.80;;;;;;5059310;28;20059;-80
2021/10/24 12:22:00;;;;;;;2.60;1.00;;;18.60;59.40;;;;;;5056208;28;20530;-78
2021/10/24 12:24:47;;;;;;;3.80;2.00;;;18.90;58.80;;;;;;5056921;28;20044;-80
2021/10/24 12:27:22;;;;;;;4.20;1.45;;;18.50;57.10;;;;;;5056596;28;20080;-80
2021/10/24 12:30:08;;;;;;;3.78;1.23;;;18.50;57.90;;;;;;5075403;28;20132;-80
2021/10/24 12:33:01;;;;;;;3.10;1.17;;;18.20;58.70;;;;;;5057394;28;20052;-80
2021/10/24 12:35:28;;;;;;;2.15;1.23;;;17.90;59.70;;;;;;5056833;28;20045;-82
2021/10/24 12:38:00;;;;;;;2.97;1.30;;;17.70;59.90;;;;;;5057011;28;20080;-84
2021/10/24 12:40:36;;;;;;;3.53;1.40;;;17.60;60.40;;;;;;5057349;28;20051;-83
2021/10/24 12:43:13;;;;;;;3.33;1.17;;;17.40;61.40;;;;;;5057800;28;20102;-83
2021/10/24 12:45:52;;;;;;;3.90;1.10;;;17.20;61.40;;;;;;5059325;28;20076;-82
2021/10/24 12:48:44;;;;;;;1.45;0.95;;;16.90;63.90;;;;;;5057268;28;20047;-82
2021/10/24 12:51:23;;;;;;;2.78;1.25;;;16.70;63.70;;;;;;5050647;28;20084;-82
2021/10/24 12:53:52;;;;;;;2.90;1.40;;;16.50;66.30;;;;;;5059967;28;20102;-82
2021/10/24 12:56:19;;;;;;;3.78;1.52;;;16.30;66.90;;;;;;5056210;28;20091;-81
2021/10/24 12:58:46;;;;;;;1.70;1.00;;;16.30;66.00;;;;;;5057372;28;20091;-82
2021/10/24 13:01:30;;;;;;;6.78;1.70;;;16.10;67.80;;;;;;5058619;28;20040;-82